Normandy Beach, New Jersey
Current Conditions -  °F | °C
As of 8:35 AM on Thursday 23 Oct 2014 (Local Time) from KBLM Reporting Station
Overcast Overcast  
Wind Chill: 52°   Ceiling: 1800
Heat Index: 52°   Visibility: 10mi
Dew Point: 45°   Wind: 15mph
Humidity: 76%   Direction: 330°NNW
Pressure: 29.7"   Gusts: NA
Location:  40°N, 74.06°W
Report Text: KBLM 231235Z AUTO 33013KT 10SM OVC018 11/07 A2970 RMK AO1
Loading
Personal Weather Stations






























Interactive Weather Map
Tropical Storm Tracking
New forecast layout! Learn more

10-Day Weather Forecast

Advertisements
Track Severe Weather on mobile